createdAt,value
2022-08-04T00:00:23.342Z,1.10
2022-08-04T00:01:23.376Z,1.00
2022-08-04T00:02:23.323Z,1.00
2022-08-04T00:03:23.313Z,1.00
2022-08-04T00:04:23.572Z,1.10
2022-08-04T00:05:23.272Z,1.10
2022-08-04T00:06:23.271Z,1.00
2022-08-04T00:07:43.970Z,0.90
2022-08-04T00:08:24.242Z,0.90
2022-08-04T00:09:23.245Z,0.80
2022-08-04T00:10:23.254Z,1.00
2022-08-04T00:11:23.245Z,1.10
2022-08-04T00:12:23.223Z,0.70
2022-08-04T00:13:24.194Z,0.90
2022-08-04T00:14:23.208Z,1.00
2022-08-04T00:15:23.173Z,0.80
2022-08-04T00:16:23.214Z,0.90
2022-08-04T00:17:24.157Z,1.10
2022-08-04T00:18:23.156Z,0.80
2022-08-04T00:19:23.146Z,0.80
2022-08-04T00:20:23.146Z,1.20
2022-08-04T00:21:23.125Z,0.90
2022-08-04T00:22:23.156Z,0.90
2022-08-04T00:23:23.106Z,0.90
2022-08-04T00:24:23.107Z,1.00
2022-08-04T00:25:23.074Z,0.80
2022-08-04T00:26:23.154Z,0.90
2022-08-04T00:27:23.263Z,1.00
2022-08-04T00:28:23.075Z,1.00
2022-08-04T00:29:23.047Z,0.90
2022-08-04T00:30:23.017Z,0.80
2022-08-04T00:31:53.715Z,0.90
2022-08-04T00:32:33.831Z,0.90
2022-08-04T00:33:23.999Z,1.10
2022-08-04T00:34:23.067Z,0.90
2022-08-04T00:35:22.988Z,0.90
2022-08-04T00:36:22.986Z,0.50
2022-08-04T00:37:23.271Z,1.20
2022-08-04T00:38:22.959Z,0.80
2022-08-04T00:39:23.123Z,0.90
2022-08-04T00:40:22.937Z,1.00
2022-08-04T00:41:22.907Z,1.00
2022-08-04T00:42:22.917Z,1.00
2022-08-04T00:43:22.927Z,0.90
2022-08-04T00:44:24.019Z,0.90
2022-08-04T00:45:22.896Z,1.20
2022-08-04T00:46:22.867Z,1.00
2022-08-04T00:47:23.113Z,0.90
2022-08-04T00:48:22.867Z,0.90
2022-08-04T00:49:22.840Z,1.00
2022-08-04T00:50:22.829Z,0.90
2022-08-04T00:51:22.851Z,0.90
2022-08-04T00:52:32.290Z,1.20
2022-08-04T00:53:23.820Z,0.90
2022-08-04T00:54:22.799Z,0.80
2022-08-04T00:55:22.800Z,1.30
2022-08-04T00:56:22.781Z,0.90
2022-08-04T00:57:33.817Z,0.90
2022-08-04T00:58:23.748Z,1.00
2022-08-04T00:59:22.728Z,1.00
2022-08-04T01:00:22.759Z,0.90
2022-08-04T01:01:22.774Z,1.00
2022-08-04T01:02:22.710Z,1.00
2022-08-04T01:03:22.700Z,1.10
2022-08-04T01:04:22.716Z,0.80
2022-08-04T01:05:22.714Z,0.80
2022-08-04T01:06:22.682Z,0.90
2022-08-04T01:07:22.864Z,0.90
2022-08-04T01:08:22.661Z,1.00
2022-08-04T01:09:22.642Z,1.10
2022-08-04T01:10:22.652Z,1.00
2022-08-04T01:11:22.632Z,1.20
2022-08-04T01:12:22.612Z,0.80
2022-08-04T01:13:22.590Z,0.80
2022-08-04T01:14:22.581Z,0.90
2022-08-04T01:15:22.570Z,0.80
2022-08-04T01:16:22.578Z,0.90
2022-08-04T01:17:22.793Z,1.00
2022-08-04T01:18:22.596Z,0.60
2022-08-04T01:19:22.564Z,0.80
2022-08-04T01:20:22.531Z,0.90
2022-08-04T01:21:22.530Z,0.90
2022-08-04T01:22:22.503Z,0.90
2022-08-04T01:23:22.495Z,0.90
2022-08-04T01:24:22.494Z,1.00
2022-08-04T01:25:22.679Z,0.90
2022-08-04T01:26:43.367Z,1.00
2022-08-04T01:27:23.501Z,1.00
2022-08-04T01:28:22.442Z,1.10
2022-08-04T01:29:22.445Z,1.00
2022-08-04T01:30:22.434Z,1.10
2022-08-04T01:31:22.460Z,0.90
2022-08-04T01:32:26.204Z,0.80
2022-08-04T01:33:22.395Z,0.80
2022-08-04T01:34:22.423Z,0.70
2022-08-04T01:35:47.635Z,1.00
2022-08-04T01:36:23.441Z,1.00
2022-08-04T01:37:22.700Z,0.90
2022-08-04T01:38:22.372Z,1.00
2022-08-04T01:39:22.450Z,0.70
2022-08-04T01:40:22.322Z,1.00
2022-08-04T01:41:32.147Z,0.80
2022-08-04T01:42:32.027Z,1.00
2022-08-04T01:43:23.293Z,1.20
2022-08-04T01:44:22.282Z,0.90
2022-08-04T01:45:22.276Z,1.10
2022-08-04T01:46:22.275Z,0.90
2022-08-04T01:47:22.498Z,1.00
2022-08-04T01:48:22.275Z,1.00
2022-08-04T01:49:22.247Z,1.20
2022-08-04T01:50:22.248Z,0.70
2022-08-04T01:51:22.215Z,1.10
2022-08-04T01:52:22.217Z,1.10
2022-08-04T01:53:22.251Z,1.00
2022-08-04T01:54:22.184Z,1.00
2022-08-04T01:55:22.174Z,1.20
2022-08-04T01:56:22.166Z,1.10
2022-08-04T01:57:22.144Z,0.80
2022-08-04T01:58:23.165Z,1.10
2022-08-04T01:59:22.144Z,0.90
2022-08-04T02:00:22.155Z,1.00
2022-08-04T02:01:22.165Z,0.60
2022-08-04T02:02:22.256Z,1.10
2022-08-04T02:03:22.128Z,1.00
2022-08-04T02:04:23.670Z,0.90
2022-08-04T02:05:22.106Z,1.00
2022-08-04T02:06:22.092Z,1.00
2022-08-04T02:07:22.292Z,1.10
2022-08-04T02:08:22.079Z,1.10
2022-08-04T02:09:22.082Z,1.00
2022-08-04T02:10:22.037Z,0.80
2022-08-04T02:11:22.015Z,1.20
2022-08-04T02:12:22.017Z,1.20
2022-08-04T02:13:21.997Z,0.80
2022-08-04T02:14:22.007Z,1.30
2022-08-04T02:15:21.979Z,1.00
2022-08-04T02:16:22.607Z,1.20
2022-08-04T02:17:22.244Z,1.00
2022-08-04T02:18:21.956Z,0.90
2022-08-04T02:19:21.979Z,1.00
2022-08-04T02:20:21.939Z,0.80
2022-08-04T02:21:21.928Z,0.90
2022-08-04T02:22:21.909Z,0.90
2022-08-04T02:23:21.901Z,0.90
2022-08-04T02:24:21.889Z,1.00
2022-08-04T02:25:21.919Z,0.80
2022-08-04T02:26:22.498Z,0.80
2022-08-04T02:27:22.087Z,0.80
2022-08-04T02:28:21.888Z,1.10
2022-08-04T02:29:21.829Z,1.00
2022-08-04T02:30:21.848Z,0.70
2022-08-04T02:31:21.809Z,1.10
2022-08-04T02:32:21.840Z,1.30
2022-08-04T02:33:21.833Z,1.30
2022-08-04T02:34:21.781Z,1.10
2022-08-04T02:35:21.809Z,1.10
2022-08-04T02:36:21.782Z,0.90
2022-08-04T02:37:22.025Z,1.10
2022-08-04T02:38:25.596Z,1.20
2022-08-04T02:39:22.463Z,0.90
2022-08-04T02:40:21.730Z,1.10
2022-08-04T02:41:21.730Z,1.10
2022-08-04T02:42:21.701Z,1.00
2022-08-04T02:43:50.990Z,0.90
2022-08-04T02:44:22.691Z,0.90
2022-08-04T02:45:21.692Z,0.80
2022-08-04T02:46:21.671Z,1.10
2022-08-04T02:47:21.951Z,0.90
2022-08-04T02:48:31.092Z,1.00
2022-08-04T02:49:22.641Z,0.90
2022-08-04T02:50:28.986Z,1.10
2022-08-04T02:51:22.664Z,1.00
2022-08-04T02:52:21.636Z,0.90
2022-08-04T02:53:21.636Z,1.10
2022-08-04T02:54:31.654Z,1.30
2022-08-04T02:55:22.602Z,1.20
2022-08-04T02:56:21.603Z,1.00
2022-08-04T02:57:21.831Z,0.90
2022-08-04T02:58:21.539Z,0.90
2022-08-04T02:59:21.533Z,1.10
2022-08-04T03:00:21.524Z,1.10
2022-08-04T03:01:21.628Z,0.90
2022-08-04T03:02:21.521Z,1.50
2022-08-04T03:03:21.522Z,1.20
2022-08-04T03:04:24.832Z,1.00
2022-08-04T03:05:21.504Z,1.20
2022-08-04T03:07:17.601Z,1.00
2022-08-04T03:08:17.572Z,1.00
2022-08-04T03:09:17.542Z,1.00
2022-08-04T03:10:17.517Z,0.90
2022-08-04T03:11:17.552Z,0.80
2022-08-04T03:12:17.507Z,1.10
2022-08-04T03:13:17.534Z,1.20
2022-08-04T03:14:17.495Z,1.10
2022-08-04T03:15:17.474Z,1.10
2022-08-04T03:16:17.473Z,0.90
2022-08-04T03:17:17.444Z,1.10
2022-08-04T03:18:17.464Z,1.10
2022-08-04T03:19:17.463Z,1.10
2022-08-04T03:20:17.425Z,1.00
2022-08-04T03:21:17.423Z,0.90
2022-08-04T03:22:17.402Z,1.20
2022-08-04T03:23:17.373Z,1.00
2022-08-04T03:24:20.222Z,0.90
2022-08-04T03:25:17.396Z,1.20
2022-08-04T03:26:17.374Z,0.90
2022-08-04T03:27:17.385Z,1.00
2022-08-04T03:28:17.410Z,1.30
2022-08-04T03:29:26.029Z,1.00
2022-08-04T03:30:18.331Z,0.90
2022-08-04T03:31:17.254Z,0.80
2022-08-04T03:32:17.305Z,1.00
2022-08-04T03:33:17.286Z,1.00
2022-08-04T03:34:17.308Z,0.90
2022-08-04T03:35:22.768Z,0.90
2022-08-04T03:36:18.255Z,1.00
2022-08-04T03:37:17.252Z,0.80
2022-08-04T03:38:17.256Z,1.00
2022-08-04T03:39:17.272Z,1.20
2022-08-04T03:40:17.197Z,0.90
2022-08-04T03:41:17.148Z,1.10
2022-08-04T03:42:18.147Z,1.00
2022-08-04T03:43:57.888Z,1.00
2022-08-04T03:44:18.116Z,1.10
2022-08-04T03:45:23.840Z,1.10
2022-08-04T03:46:18.108Z,1.00
2022-08-04T03:47:17.765Z,1.30
2022-08-04T03:48:17.073Z,1.20
2022-08-04T03:49:17.066Z,1.10
2022-08-04T03:50:17.057Z,1.00
2022-08-04T03:51:32.493Z,1.10
2022-08-04T03:52:18.039Z,1.00
2022-08-04T03:53:17.032Z,1.30
2022-08-04T03:54:17.018Z,1.10
2022-08-04T03:55:17.026Z,1.00
2022-08-04T03:56:17.029Z,0.90
2022-08-04T03:57:17.009Z,1.20
2022-08-04T03:58:17.009Z,1.30
2022-08-04T03:59:16.959Z,0.80
2022-08-04T04:00:16.947Z,1.30
2022-08-04T04:01:16.981Z,1.20
2022-08-04T04:02:16.997Z,0.80
2022-08-04T04:03:28.808Z,0.90
2022-08-04T04:04:17.917Z,1.10
2022-08-04T04:05:16.900Z,1.30
2022-08-04T04:06:16.887Z,0.90
2022-08-04T04:07:16.963Z,1.10
2022-08-04T04:08:19.074Z,0.90
2022-08-04T04:09:20.873Z,0.80
2022-08-04T04:10:16.898Z,1.10
2022-08-04T04:11:16.840Z,1.20
2022-08-04T04:12:16.841Z,1.00
2022-08-04T04:13:16.890Z,3.60
2022-08-04T04:14:16.820Z,0.90
2022-08-04T04:15:16.800Z,1.10
2022-08-04T04:16:16.799Z,1.10
2022-08-04T04:17:16.809Z,1.20
2022-08-04T04:18:16.764Z,0.90
2022-08-04T04:19:16.749Z,1.20
2022-08-04T04:20:16.752Z,1.10
2022-08-04T04:21:16.739Z,1.10
2022-08-04T04:22:16.729Z,1.20
2022-08-04T04:23:17.386Z,0.80
2022-08-04T04:24:16.721Z,1.00
2022-08-04T04:25:16.705Z,0.80
2022-08-04T04:26:16.690Z,1.20
2022-08-04T04:27:16.682Z,0.80
2022-08-04T04:28:44.712Z,1.00
2022-08-04T04:29:17.671Z,0.90
2022-08-04T04:30:16.649Z,1.00
2022-08-04T04:31:16.651Z,1.10
2022-08-04T04:32:16.631Z,1.10
2022-08-04T04:33:16.630Z,1.10
2022-08-04T04:34:16.610Z,0.80
2022-08-04T04:35:16.641Z,1.00
2022-08-04T04:36:16.592Z,1.00
2022-08-04T04:37:16.609Z,0.80
2022-08-04T04:38:16.564Z,1.00
2022-08-04T04:39:16.664Z,1.20
2022-08-04T04:40:16.576Z,0.80
2022-08-04T04:41:16.571Z,1.10
2022-08-04T04:42:16.524Z,1.20
2022-08-04T04:43:17.191Z,0.80
2022-08-04T04:44:16.516Z,1.20
2022-08-04T04:45:16.525Z,0.90
2022-08-04T04:46:16.513Z,1.00
2022-08-04T04:47:16.482Z,1.00
2022-08-04T04:48:16.463Z,1.00
2022-08-04T04:49:16.475Z,1.30
2022-08-04T04:50:16.445Z,1.20
2022-08-04T04:51:16.432Z,0.70
2022-08-04T04:52:16.428Z,1.20
2022-08-04T04:53:16.414Z,0.80
2022-08-04T04:54:17.394Z,1.10
2022-08-04T04:55:16.392Z,1.00
2022-08-04T04:56:16.403Z,1.00
2022-08-04T04:57:16.370Z,1.00
2022-08-04T04:58:16.363Z,1.10
2022-08-04T04:59:16.344Z,1.30
2022-08-04T05:00:16.393Z,0.90
2022-08-04T05:01:16.323Z,1.00
2022-08-04T05:02:16.315Z,1.10
2022-08-04T05:03:16.315Z,0.90
2022-08-04T05:04:16.335Z,0.70
2022-08-04T05:05:16.314Z,1.10
2022-08-04T05:06:16.346Z,1.00
2022-08-04T05:07:16.278Z,1.10
2022-08-04T05:08:44.380Z,1.00
2022-08-04T05:09:17.254Z,0.80
2022-08-04T05:10:16.284Z,1.00
2022-08-04T05:11:16.246Z,1.00
2022-08-04T05:14:31.418Z,0.90
2022-08-04T05:14:37.035Z,1.40
2022-08-04T05:14:37.970Z,1.20
2022-08-04T05:15:17.186Z,1.10
2022-08-04T05:16:16.213Z,0.70
2022-08-04T05:17:16.204Z,0.90
2022-08-04T05:18:16.155Z,1.20
2022-08-04T05:19:16.147Z,1.30
2022-08-04T05:20:16.176Z,1.10
2022-08-04T05:21:16.126Z,0.80
2022-08-04T05:22:16.156Z,1.00
2022-08-04T05:23:16.137Z,1.10
2022-08-04T05:24:16.146Z,1.10
2022-08-04T05:25:16.088Z,0.90
2022-08-04T05:26:16.147Z,0.90
2022-08-04T05:27:16.068Z,1.00
2022-08-04T05:28:16.055Z,1.00
2022-08-04T05:29:16.036Z,1.20
2022-08-04T05:30:16.027Z,0.90
2022-08-04T05:31:16.016Z,1.00
2022-08-04T05:32:16.023Z,0.70
2022-08-04T05:33:15.996Z,0.80
2022-08-04T05:34:15.987Z,1.00
2022-08-04T05:35:16.017Z,1.20
2022-08-04T05:36:29.377Z,2.20
2022-08-04T05:37:17.938Z,2.20
2022-08-04T05:38:15.959Z,2.50
2022-08-04T05:39:16.043Z,2.80
2022-08-04T05:40:16.010Z,3.60
2022-08-04T05:41:15.930Z,2.30
2022-08-04T05:42:16.432Z,2.40
2022-08-04T05:43:15.917Z,2.70
2022-08-04T05:44:15.912Z,2.70
2022-08-04T05:45:15.879Z,2.50
2022-08-04T05:46:15.865Z,2.60
2022-08-04T05:47:15.878Z,2.80
2022-08-04T05:48:15.842Z,2.80
2022-08-04T05:49:15.869Z,2.30
2022-08-04T05:50:15.849Z,2.60
2022-08-04T05:51:15.820Z,3.10
2022-08-04T05:52:17.498Z,2.80
2022-08-04T05:53:15.801Z,2.50
2022-08-04T05:54:15.790Z,2.40
2022-08-04T05:55:56.666Z,2.90
2022-08-04T05:56:16.860Z,2.40
2022-08-04T05:57:15.821Z,2.60
2022-08-04T05:58:15.772Z,2.80
2022-08-04T05:59:15.751Z,2.60
2022-08-04T06:00:39.832Z,2.50
2022-08-04T06:01:16.804Z,2.70
2022-08-04T06:02:15.777Z,2.50
2022-08-04T06:03:15.712Z,2.40
2022-08-04T06:04:15.680Z,2.70
2022-08-04T06:05:16.345Z,2.50
2022-08-04T06:06:15.679Z,2.70
2022-08-04T06:07:15.653Z,2.50
2022-08-04T06:08:15.653Z,2.90
2022-08-04T06:09:15.693Z,2.40
2022-08-04T06:10:15.661Z,2.90
2022-08-04T06:11:15.660Z,2.50
2022-08-04T06:12:15.605Z,2.40
2022-08-04T06:13:48.822Z,2.60
2022-08-04T06:14:16.942Z,2.90
2022-08-04T06:15:15.581Z,2.40
2022-08-04T06:16:28.866Z,2.50
2022-08-04T06:18:32.305Z,2.40
2022-08-04T06:19:56.950Z,2.50
2022-08-04T06:19:58.654Z,2.80
2022-08-04T06:20:18.836Z,2.60
2022-08-04T06:21:16.678Z,3.60
2022-08-04T06:22:15.502Z,2.70
2022-08-04T06:23:15.524Z,2.70
2022-08-04T06:24:15.482Z,2.80
2022-08-04T06:25:15.833Z,2.90
2022-08-04T06:26:15.484Z,2.40
2022-08-04T06:27:15.464Z,2.50
2022-08-04T06:28:15.434Z,2.50
2022-08-04T06:29:15.445Z,2.80
2022-08-04T06:30:15.453Z,2.60
2022-08-04T06:32:28.566Z,3.60
2022-08-04T06:32:31.058Z,2.50
2022-08-04T06:33:16.450Z,2.40
2022-08-04T06:34:15.382Z,2.90
2022-08-04T06:35:15.472Z,2.30
2022-08-04T06:36:15.394Z,2.40
2022-08-04T06:37:41.035Z,2.60
2022-08-04T06:38:16.363Z,2.60
2022-08-04T06:39:16.329Z,2.40
2022-08-04T06:40:31.930Z,2.50
2022-08-04T06:41:16.328Z,2.90
2022-08-04T06:42:21.453Z,2.50
2022-08-04T06:43:16.310Z,2.50
2022-08-04T06:44:15.394Z,2.40
2022-08-04T06:45:15.256Z,2.30
2022-08-04T06:46:15.266Z,2.60
2022-08-04T06:47:15.256Z,2.50
2022-08-04T06:48:15.246Z,2.50
2022-08-04T06:49:15.236Z,2.50
2022-08-04T06:51:24.365Z,2.40
2022-08-04T06:51:29.389Z,2.20
2022-08-04T06:52:16.228Z,2.30
2022-08-04T06:53:15.218Z,2.30
2022-08-04T06:54:15.245Z,2.50
2022-08-04T06:55:15.223Z,2.80
2022-08-04T06:56:15.155Z,2.20
2022-08-04T06:57:15.136Z,2.30
2022-08-04T06:58:15.155Z,2.30
2022-08-04T06:59:16.087Z,2.10
2022-08-04T07:00:15.375Z,2.00
2022-08-04T07:01:15.172Z,2.10
2022-08-04T07:02:15.099Z,2.00
2022-08-04T07:03:15.082Z,2.10
2022-08-04T07:04:15.106Z,2.20
2022-08-04T07:05:15.092Z,2.50
2022-08-04T07:06:15.163Z,2.30
2022-08-04T07:07:15.053Z,2.20
2022-08-04T07:08:15.039Z,2.10
2022-08-04T07:09:15.029Z,2.20
2022-08-04T07:10:17.921Z,2.00
2022-08-04T07:11:16.347Z,1.90
2022-08-04T07:12:15.007Z,2.30
2022-08-04T07:13:14.975Z,2.20
2022-08-04T07:14:14.988Z,2.20
2022-08-04T07:15:14.957Z,2.00
2022-08-04T07:16:14.946Z,2.00
2022-08-04T07:17:14.958Z,2.10
2022-08-04T07:18:14.969Z,2.00
2022-08-04T07:19:18.854Z,1.90
2022-08-04T07:20:14.920Z,2.00
2022-08-04T07:21:15.901Z,2.00
2022-08-04T07:22:24.775Z,1.90
2022-08-04T07:23:16.397Z,1.90
2022-08-04T07:24:14.910Z,2.00
2022-08-04T07:25:14.889Z,2.50
2022-08-04T07:26:14.888Z,2.10
2022-08-04T07:27:14.838Z,1.60
2022-08-04T07:28:14.819Z,2.30
2022-08-04T07:29:14.819Z,2.10
2022-08-04T07:30:14.819Z,2.20
2022-08-04T07:31:34.379Z,1.80
2022-08-04T07:32:15.779Z,1.90
2022-08-04T07:33:14.772Z,1.80
2022-08-04T07:34:21.255Z,1.90
2022-08-04T07:36:10.067Z,2.20
2022-08-04T07:36:16.702Z,2.10
2022-08-04T07:37:15.882Z,1.90
2022-08-04T07:38:14.745Z,1.70
2022-08-04T07:39:27.305Z,1.90
2022-08-04T07:40:16.712Z,2.10
2022-08-04T07:42:15.700Z,2.20
2022-08-04T07:43:14.680Z,1.90
2022-08-04T07:44:14.661Z,2.00
2022-08-04T07:45:14.681Z,2.00
2022-08-04T07:46:14.647Z,1.80
2022-08-04T07:47:14.647Z,2.50
2022-08-04T07:48:14.663Z,2.00
2022-08-04T07:49:54.921Z,1.90
2022-08-04T07:50:16.587Z,2.40
2022-08-04T07:51:14.592Z,1.70
2022-08-04T07:52:14.574Z,1.80
2022-08-04T07:53:53.149Z,1.80
2022-08-04T07:54:16.510Z,1.90
2022-08-04T07:55:14.575Z,2.00
2022-08-04T07:56:14.551Z,1.90
2022-08-04T07:57:19.605Z,2.10
2022-08-04T07:58:15.563Z,1.90
2022-08-04T07:59:14.514Z,2.20
2022-08-04T08:00:14.525Z,1.80
2022-08-04T08:01:15.456Z,1.90
2022-08-04T08:02:14.514Z,2.20
2022-08-04T08:03:14.513Z,1.70
2022-08-04T08:04:15.145Z,2.00
2022-08-04T08:05:14.465Z,1.90
2022-08-04T08:06:31.319Z,2.10
2022-08-04T08:08:26.565Z,1.70
2022-08-04T08:09:27.035Z,1.70
2022-08-04T08:10:27.106Z,1.70
2022-08-04T08:12:36.467Z,1.80
2022-08-04T08:12:36.467Z,1.70
2022-08-04T08:13:30.302Z,1.70
2022-08-04T08:14:27.998Z,1.50
2022-08-04T08:15:26.026Z,1.80
2022-08-04T08:16:26.932Z,1.90
2022-08-04T08:17:26.015Z,2.00
2022-08-04T08:18:25.987Z,2.00
2022-08-04T08:19:25.964Z,2.00
2022-08-04T08:20:29.903Z,2.20
2022-08-04T08:21:25.924Z,1.80
2022-08-04T08:22:25.925Z,1.90
2022-08-04T08:23:25.916Z,2.00
2022-08-04T08:24:25.905Z,1.90
2022-08-04T08:25:25.898Z,1.70
2022-08-04T08:26:25.934Z,2.00
2022-08-04T08:27:25.905Z,1.70
2022-08-04T08:28:25.857Z,1.80
2022-08-04T08:29:25.941Z,2.10
2022-08-04T08:30:31.965Z,1.80
2022-08-04T08:31:57.376Z,1.90
2022-08-04T08:32:26.835Z,1.80
2022-08-04T08:33:25.808Z,1.90
2022-08-04T08:34:28.083Z,1.90
2022-08-04T08:35:25.786Z,1.70
2022-08-04T08:36:25.847Z,1.40
2022-08-04T08:37:25.777Z,2.00
2022-08-04T08:38:25.746Z,2.10
2022-08-04T08:39:26.141Z,1.60
2022-08-04T08:40:39.261Z,1.70
2022-08-04T08:41:27.747Z,2.20
2022-08-04T08:42:25.925Z,1.80
2022-08-04T08:44:06.557Z,2.00
2022-08-04T08:44:36.576Z,1.80
2022-08-04T08:45:26.677Z,2.10
2022-08-04T08:46:47.943Z,1.70
2022-08-04T08:47:26.678Z,1.60
2022-08-04T08:48:25.745Z,2.00
2022-08-04T08:50:02.228Z,2.00
2022-08-04T08:50:26.642Z,1.50
2022-08-04T08:51:25.635Z,2.20
2022-08-04T08:53:01.244Z,1.80
2022-08-04T08:53:26.610Z,1.80
2022-08-04T08:54:25.609Z,1.70
2022-08-04T08:55:25.580Z,1.70
2022-08-04T08:56:31.202Z,1.70
2022-08-04T08:57:26.581Z,2.00
2022-08-04T08:58:25.569Z,5.50
2022-08-04T08:59:25.528Z,1.70
2022-08-04T09:00:31.750Z,1.80
2022-08-04T09:01:26.568Z,2.30
2022-08-04T09:02:25.549Z,1.70
2022-08-04T09:03:25.533Z,2.10
2022-08-04T09:04:28.834Z,1.70
2022-08-04T09:05:26.489Z,1.80
2022-08-04T09:06:25.490Z,2.90
2022-08-04T09:07:25.473Z,1.70
2022-08-04T09:08:25.862Z,1.70
2022-08-04T09:09:25.449Z,1.60
2022-08-04T09:10:25.430Z,1.70
2022-08-04T09:11:25.420Z,2.00
2022-08-04T09:12:25.686Z,1.90
2022-08-04T09:13:25.421Z,1.80
2022-08-04T09:14:25.409Z,1.70
2022-08-04T09:15:25.378Z,1.90
2022-08-04T09:16:25.363Z,1.40
2022-08-04T09:17:25.388Z,1.50
2022-08-04T09:18:25.343Z,1.30
2022-08-04T09:19:38.545Z,1.60
2022-08-04T09:20:26.333Z,1.70
2022-08-04T09:21:25.346Z,1.70
2022-08-04T09:22:25.332Z,1.70
2022-08-04T09:23:25.303Z,1.50
2022-08-04T09:24:35.197Z,1.70
2022-08-04T09:25:26.316Z,1.50
2022-08-04T09:26:25.293Z,1.70
2022-08-04T09:27:25.343Z,1.10
2022-08-04T09:28:50.883Z,1.20
2022-08-04T09:29:27.223Z,1.60
2022-08-04T09:30:25.251Z,1.50
2022-08-04T09:31:25.273Z,1.40
2022-08-04T09:32:25.212Z,1.40
2022-08-04T09:33:45.270Z,1.60
2022-08-04T09:34:26.222Z,1.30
2022-08-04T09:35:25.202Z,1.70
2022-08-04T09:36:26.290Z,1.70
2022-08-04T09:37:25.165Z,1.40
2022-08-04T09:38:25.145Z,1.50
2022-08-04T09:39:25.168Z,1.40
2022-08-04T09:40:31.350Z,1.20
2022-08-04T09:41:48.428Z,1.40
2022-08-04T09:42:26.445Z,1.50
2022-08-04T09:43:25.103Z,1.60
2022-08-04T09:44:50.632Z,1.20
2022-08-04T09:45:32.677Z,1.30
2022-08-04T09:46:26.071Z,1.50
2022-08-04T09:47:25.094Z,1.50
2022-08-04T09:48:25.055Z,1.40
2022-08-04T09:49:25.058Z,1.70
2022-08-04T09:50:25.059Z,1.40
2022-08-04T09:51:25.036Z,1.40
2022-08-04T09:52:26.076Z,1.70
2022-08-04T09:53:25.029Z,1.30
2022-08-04T09:54:30.602Z,1.80
2022-08-04T09:55:26.075Z,1.40
2022-08-04T09:56:26.085Z,1.40
2022-08-04T09:57:24.964Z,1.90
2022-08-04T09:58:24.978Z,1.20
2022-08-04T09:59:24.953Z,1.40
2022-08-04T10:00:41.377Z,1.40
2022-08-04T10:01:25.952Z,1.20
2022-08-04T10:02:24.924Z,1.30
2022-08-04T10:03:24.986Z,1.50
2022-08-04T10:04:25.028Z,1.80
2022-08-04T10:05:24.908Z,1.40
2022-08-04T10:06:24.908Z,1.40
2022-08-04T10:07:24.900Z,1.30
2022-08-04T10:08:24.895Z,1.30
2022-08-04T10:09:24.900Z,1.50
2022-08-04T10:10:25.077Z,1.40
2022-08-04T10:11:24.837Z,1.60
2022-08-04T10:12:24.878Z,1.30
2022-08-04T10:13:24.826Z,1.00
2022-08-04T10:14:24.797Z,1.80
2022-08-04T10:15:24.825Z,1.40
2022-08-04T10:16:24.789Z,1.60
2022-08-04T10:17:24.785Z,1.60
2022-08-04T10:18:24.852Z,1.40
2022-08-04T10:19:24.782Z,1.60
2022-08-04T10:20:44.339Z,1.40
2022-08-04T10:21:25.748Z,1.50
2022-08-04T10:22:28.595Z,1.20
2022-08-04T10:23:24.763Z,1.40
2022-08-04T10:24:24.752Z,1.40
2022-08-04T10:25:39.967Z,1.10
2022-08-04T10:26:25.879Z,1.50
2022-08-04T10:27:24.736Z,1.30
2022-08-04T10:28:24.669Z,1.60
2022-08-04T10:29:24.721Z,1.60
2022-08-04T10:30:25.617Z,1.30
2022-08-04T10:31:24.636Z,1.20
2022-08-04T10:32:24.682Z,1.40
2022-08-04T10:33:24.682Z,1.40
2022-08-04T10:34:24.613Z,1.50
2022-08-04T10:35:24.640Z,1.50
2022-08-04T10:36:24.633Z,1.60
2022-08-04T10:37:59.944Z,1.60
2022-08-04T10:38:27.114Z,1.10
2022-08-04T10:39:43.749Z,1.10
2022-08-04T10:40:25.551Z,1.40
2022-08-04T10:41:25.192Z,1.60
2022-08-04T10:42:24.521Z,1.40
2022-08-04T10:43:24.524Z,1.30
2022-08-04T10:44:24.764Z,1.30
2022-08-04T10:45:24.501Z,1.40
2022-08-04T10:46:24.502Z,1.40
2022-08-04T10:47:24.494Z,1.40
2022-08-04T10:48:34.713Z,1.50
2022-08-04T10:49:25.465Z,1.10
2022-08-04T10:50:24.473Z,1.30
2022-08-04T10:51:24.434Z,0.90
2022-08-04T10:52:24.431Z,1.30
2022-08-04T10:53:24.442Z,1.20
2022-08-04T10:54:24.414Z,1.50
2022-08-04T10:56:07.879Z,1.30
2022-08-04T10:56:25.434Z,1.60
2022-08-04T10:57:25.084Z,1.60
2022-08-04T10:58:24.406Z,1.30
2022-08-04T10:59:25.355Z,1.50
2022-08-04T11:00:24.365Z,1.20
2022-08-04T11:02:02.063Z,1.40
2022-08-04T11:02:25.357Z,1.40
2022-08-04T11:03:24.388Z,1.20
2022-08-04T11:04:27.160Z,1.50
2022-08-04T11:05:24.296Z,1.10
2022-08-04T11:06:24.297Z,1.50
2022-08-04T11:07:24.397Z,1.60
2022-08-04T11:08:24.905Z,1.50
2022-08-04T11:09:24.313Z,1.30
2022-08-04T11:10:24.932Z,1.60
2022-08-04T11:11:24.247Z,1.30
2022-08-04T11:12:24.275Z,1.20
2022-08-04T11:13:29.784Z,1.30
2022-08-04T11:14:25.247Z,1.50
2022-08-04T11:15:24.197Z,1.50
2022-08-04T11:16:24.188Z,1.20
2022-08-04T11:17:24.424Z,1.20
2022-08-04T11:18:24.177Z,1.30
2022-08-04T11:19:41.985Z,1.30
2022-08-04T11:20:41.176Z,1.10
2022-08-04T11:21:25.127Z,1.40
2022-08-04T11:22:24.127Z,1.10
2022-08-04T11:23:24.140Z,1.10
2022-08-04T11:24:26.273Z,1.30
2022-08-04T11:25:24.117Z,1.20
2022-08-04T11:26:24.571Z,1.70
2022-08-04T11:27:24.139Z,1.10
2022-08-04T11:28:24.079Z,1.50
2022-08-04T11:29:24.049Z,1.00
2022-08-04T11:30:25.009Z,1.50
2022-08-04T11:31:24.051Z,1.50
2022-08-04T11:32:24.120Z,1.10
2022-08-04T11:33:24.020Z,1.30
2022-08-04T11:34:24.013Z,1.50
2022-08-04T11:35:23.988Z,1.50
2022-08-04T11:36:23.992Z,1.30
2022-08-04T11:37:24.056Z,1.10
2022-08-04T11:38:29.185Z,1.20
2022-08-04T11:39:25.222Z,1.70
2022-08-04T11:40:23.940Z,1.20
2022-08-04T11:41:23.940Z,1.10
2022-08-04T11:42:23.971Z,1.30
2022-08-04T11:44:01.166Z,1.40
2022-08-04T11:44:25.861Z,1.80
2022-08-04T11:45:24.028Z,1.30
2022-08-04T11:46:24.460Z,1.40
2022-08-04T11:47:24.181Z,1.30
2022-08-04T11:48:23.902Z,1.00
2022-08-04T11:49:23.892Z,1.50
2022-08-04T11:50:23.853Z,1.30
2022-08-04T11:51:23.843Z,1.20
2022-08-04T11:52:23.820Z,1.30
2022-08-04T11:53:23.801Z,1.30
2022-08-04T11:54:23.920Z,1.20
2022-08-04T11:55:23.793Z,1.10
2022-08-04T11:56:35.851Z,1.20
2022-08-04T11:57:35.464Z,1.20
2022-08-04T11:58:24.751Z,1.30
2022-08-04T11:59:23.804Z,1.00
2022-08-04T12:00:23.943Z,1.40
2022-08-04T12:01:23.799Z,1.30
2022-08-04T12:02:24.764Z,1.20
2022-08-04T12:03:23.714Z,1.40
2022-08-04T12:04:23.725Z,1.60
2022-08-04T12:05:36.716Z,1.70
2022-08-04T12:06:24.715Z,1.50
2022-08-04T12:07:31.832Z,1.30
2022-08-04T12:08:24.652Z,1.70
2022-08-04T12:09:23.643Z,1.50
2022-08-04T12:10:42.338Z,1.50
2022-08-04T12:11:24.663Z,1.50
2022-08-04T12:12:23.623Z,1.30
2022-08-04T12:13:24.561Z,1.40
2022-08-04T12:14:23.594Z,1.10
2022-08-04T12:15:23.627Z,1.20
2022-08-04T12:16:24.322Z,1.30
2022-08-04T12:17:26.316Z,1.30
2022-08-04T12:18:24.688Z,1.30
2022-08-04T12:19:23.548Z,1.30
2022-08-04T12:20:38.125Z,1.40
2022-08-04T12:21:24.516Z,1.00
2022-08-04T12:22:23.525Z,1.00
2022-08-04T12:23:23.546Z,1.20
2022-08-04T12:24:23.505Z,1.50
2022-08-04T12:25:23.486Z,1.70
2022-08-04T12:26:23.575Z,1.30
2022-08-04T12:27:25.855Z,1.40
2022-08-04T12:28:24.475Z,1.10
2022-08-04T12:29:23.437Z,1.30
2022-08-04T12:30:59.876Z,1.70
2022-08-04T12:31:24.417Z,1.50
2022-08-04T12:32:23.558Z,1.50
2022-08-04T12:33:23.409Z,1.70
2022-08-04T12:34:24.438Z,1.10
2022-08-04T12:35:24.381Z,1.30
2022-08-04T12:36:23.386Z,1.30
2022-08-04T12:37:23.588Z,1.20
2022-08-04T12:38:23.390Z,1.70
2022-08-04T12:39:23.443Z,1.10
2022-08-04T12:40:30.697Z,1.30
2022-08-04T12:41:24.316Z,1.10
2022-08-04T12:42:23.339Z,1.30
2022-08-04T12:43:23.297Z,1.50
2022-08-04T12:44:36.592Z,1.20
2022-08-04T12:45:24.279Z,1.30
2022-08-04T12:46:23.298Z,1.30
2022-08-04T12:47:36.659Z,1.10
2022-08-04T12:48:24.281Z,1.10
2022-08-04T12:49:23.285Z,1.30
2022-08-04T12:50:23.260Z,1.20
2022-08-04T12:52:06.126Z,1.20
2022-08-04T12:52:30.518Z,1.40
2022-08-04T12:53:31.776Z,1.20
2022-08-04T12:54:28.684Z,1.20
2022-08-04T12:55:23.222Z,1.30
2022-08-04T12:56:27.940Z,1.40
2022-08-04T12:57:23.578Z,1.30
2022-08-04T12:58:43.467Z,1.40
2022-08-04T12:59:24.149Z,1.30
2022-08-04T13:00:26.252Z,1.60
2022-08-04T13:02:08.487Z,1.10
2022-08-04T13:02:24.202Z,1.30
2022-08-04T13:03:23.102Z,1.00
2022-08-04T13:04:28.843Z,1.30
2022-08-04T13:05:24.074Z,1.30
2022-08-04T13:06:23.532Z,1.10
2022-08-04T13:07:23.318Z,1.10
2022-08-04T13:09:19.920Z,1.10
2022-08-04T13:10:19.860Z,1.10
2022-08-04T13:11:19.876Z,1.30
2022-08-04T13:12:19.852Z,1.30
2022-08-04T13:13:19.855Z,1.50
2022-08-04T13:14:27.231Z,1.10
2022-08-04T13:15:20.823Z,1.20
2022-08-04T13:16:19.889Z,1.20
2022-08-04T13:17:20.003Z,1.30
2022-08-04T13:18:19.823Z,1.20
2022-08-04T13:19:19.783Z,1.60
2022-08-04T13:20:19.763Z,1.10
2022-08-04T13:21:22.880Z,1.30
2022-08-04T13:22:20.784Z,1.10